Skip Navigation Links Skip Navigation Links

Current Weather

Toronto Island Apt, Toronto, Ont.

For information only: do not use for flight planning or navigation.
Latest weather
Observation time Monday, October 18, 2021 4:00 PM EDT
Local time Monday, October 18, 2021 4:39 PM EDT
Flight conditions Visual Meteorological Conditions
Winds
Wind direction Northwest (320°)
Winds variable from 300° to 60°
Wind speed 8 mph
Visibility 9 mi.
Sky condition
Ceiling unlimited
Cloud layer scattered clouds 6,000 ft.
Temperature 57°F
Dewpoint 39°F
Altimeter 29.99 in.Hg
Derived measurements
Relative humidity 51%
Density altitude -1 ft.
Sea-level pressure 29.99 in.Hg
Remarks
Fully automated report.
METAR CYTZ 182000Z AUTO 32007KT 300V060 9SM SCT060 14/04 A2999 RMK SLP157

Settings

Location code

InnerDrive.Weather 4.0.6770.0 Release CLR 4.0.30319.42000
Copyright ©2018 Inner Drive Technology. All rights reserved. Portions Copyright ©1986-2018 David Braverman.

Find weather

Site navigation


Skip Navigation Links

Place info

Page info

PayPal - The safer, easier way to pay online!

Return home.

Copyright ©2021 Inner Drive Technology. Purveyors of fine, hand-crafted computer software. Page printed 2021-10-18T20:39:44 UTC.